Time;durP1;ratioP1;P1;durP2;ratioP2;P2;SDS_P1;SDS_P2;PMS_P1;PMS_P2;Temp;Humidity;BMP_temperature;BMP_pressure;BME280_temperature;BME280_humidity;BME280_pressure;Samples;Min_cycle;Max_cycle;Signal;HPM_P1;HPM_P2
2021/06/27 00:01:40;;;;;;;;;;;21.30;99.90;;;;;;5033322;28;20713;-79
2021/06/27 00:04:12;;;;;;;;;;;21.20;99.90;;;;;;5030219;28;19931;-77
2021/06/27 00:06:39;;;;;;;;;;;21.20;99.90;;;;;;5034713;28;20451;-77
2021/06/27 00:09:06;;;;;;;;;;;21.20;99.90;;;;;;5030566;28;19972;-73
2021/06/27 00:11:34;;;;;;;;;;;21.20;99.90;;;;;;5027856;28;19971;-72
2021/06/27 00:14:01;;;;;;;;;;;21.20;99.90;;;;;;5026125;28;19991;-72
2021/06/27 00:16:29;;;;;;;;;;;21.20;99.90;;;;;;5027100;28;19960;-71
2021/06/27 00:18:57;;;;;;;;;;;21.20;99.90;;;;;;5026639;28;20617;-71
2021/06/27 00:21:25;;;;;;;;;;;21.20;99.90;;;;;;5024223;28;19991;-73
2021/06/27 00:23:52;;;;;;;;;;;21.20;99.90;;;;;;5025650;28;19978;-72
2021/06/27 00:26:23;;;;;;;;;;;21.20;99.90;;;;;;5023919;28;20012;-72
2021/06/27 00:28:50;;;;;;;;;;;21.20;99.90;;;;;;5025962;28;20273;-72
2021/06/27 00:31:17;;;;;;;;;;;21.20;99.90;;;;;;5028352;28;20326;-73
2021/06/27 00:33:44;;;;;;;;;;;21.20;99.90;;;;;;5026291;28;20016;-72
2021/06/27 00:36:11;;;;;;;;;;;21.20;99.90;;;;;;5027459;28;20575;-71
2021/06/27 00:38:39;;;;;;;;;;;21.20;99.90;;;;;;5026367;28;20035;-71
2021/06/27 00:41:05;;;;;;;;;;;21.30;99.90;;;;;;5028399;28;20007;-71
2021/06/27 00:43:33;;;;;;;;;;;21.20;99.90;;;;;;5027642;28;20011;-71
2021/06/27 00:46:00;;;;;;;;;;;21.10;99.90;;;;;;5026411;28;19972;-71
2021/06/27 00:48:27;;;;;;;;;;;21.10;99.90;;;;;;5027930;28;19971;-71
2021/06/27 00:50:56;;;;;;;;;;;21.10;99.90;;;;;;5024656;28;20029;-71
2021/06/27 00:53:23;;;;;;;;;;;21.10;99.90;;;;;;5028299;28;20022;-71
2021/06/27 00:55:57;;;;;;;;;;;21.10;99.90;;;;;;5025410;28;19925;-71
2021/06/27 00:58:24;;;;;;;;;;;21.10;99.90;;;;;;5025055;28;19925;-72
2021/06/27 01:00:51;;;;;;;;;;;21.10;99.90;;;;;;5042409;28;20040;-73
2021/06/27 01:03:18;;;;;;;;;;;21.10;99.90;;;;;;5027900;28;19931;-71
2021/06/27 01:05:44;;;;;;;;;;;21.20;99.90;;;;;;5024199;28;20037;-71
2021/06/27 01:08:11;;;;;;;;;;;21.20;99.90;;;;;;5023898;28;20016;-72
2021/06/27 01:10:38;;;;;;;;;;;21.20;99.90;;;;;;5027532;28;20376;-70
2021/06/27 01:13:06;;;;;;;;;;;21.20;99.90;;;;;;5026078;28;20264;-74
2021/06/27 01:15:33;;;;;;;;;;;21.10;99.90;;;;;;5027317;28;19925;-73
2021/06/27 01:18:00;;;;;;;;;;;21.20;99.90;;;;;;5026443;28;19970;-71
2021/06/27 01:20:29;;;;;;;;;;;21.30;99.90;;;;;;5026573;28;20014;-71
2021/06/27 01:22:57;;;;;;;;;;;21.20;99.90;;;;;;5043929;28;20490;-71
2021/06/27 01:25:25;;;;;;;;;;;21.20;99.90;;;;;;5024859;28;20351;-71
2021/06/27 01:27:53;;;;;;;;;;;21.30;99.90;;;;;;5022935;28;19979;-71
2021/06/27 01:30:20;;;;;;;;;;;21.20;99.90;;;;;;5027857;28;19937;-72
2021/06/27 01:32:48;;;;;;;;;;;21.20;99.90;;;;;;5029916;28;19932;-71
2021/06/27 01:35:16;;;;;;;;;;;21.20;99.90;;;;;;5046107;28;20380;-71
2021/06/27 01:37:44;;;;;;;;;;;21.20;99.90;;;;;;5028594;28;19925;-72
2021/06/27 01:40:12;;;;;;;;;;;21.20;99.90;;;;;;5027037;28;20415;-71
2021/06/27 01:42:38;;;;;;;;;;;21.20;99.90;;;;;;5032058;28;19925;-73
2021/06/27 01:45:09;;;;;;;;;;;21.20;99.90;;;;;;5031886;28;19964;-71
2021/06/27 01:47:36;;;;;;;;;;;21.20;99.90;;;;;;5027985;28;20369;-71
2021/06/27 01:50:04;;;;;;;;;;;21.20;99.90;;;;;;5027256;28;20015;-72
2021/06/27 01:52:31;;;;;;;;;;;21.20;99.90;;;;;;5046725;28;19936;-71
2021/06/27 01:54:58;;;;;;;;;;;21.20;99.90;;;;;;5026131;28;19933;-71
2021/06/27 01:57:25;;;;;;;;;;;21.10;99.90;;;;;;5030033;28;19933;-71
2021/06/27 01:59:52;;;;;;;;;;;21.10;99.90;;;;;;5040818;28;19933;-72
2021/06/27 02:02:18;;;;;;;;;;;21.10;99.90;;;;;;5026761;28;20016;-72
2021/06/27 02:04:46;;;;;;;;;;;21.10;99.90;;;;;;5030156;28;19964;-72
2021/06/27 02:07:13;;;;;;;;;;;20.90;99.90;;;;;;5030662;28;19971;-72
2021/06/27 02:09:40;;;;;;;;;;;21.00;99.90;;;;;;5024760;28;19976;-71
2021/06/27 02:12:09;;;;;;;;;;;21.00;99.90;;;;;;5030045;28;20384;-71
2021/06/27 02:14:39;;;;;;;;;;;21.00;99.90;;;;;;5029656;28;19960;-70
2021/06/27 02:17:06;;;;;;;;;;;21.00;99.90;;;;;;5027738;28;20323;-71
2021/06/27 02:19:33;;;;;;;;;;;21.00;99.90;;;;;;5031623;28;19979;-71
2021/06/27 02:22:00;;;;;;;;;;;20.90;99.90;;;;;;5030034;28;20352;-73
2021/06/27 02:24:27;;;;;;;;;;;20.80;99.90;;;;;;5028531;28;19933;-71
2021/06/27 02:26:53;;;;;;;;;;;20.80;99.90;;;;;;5032419;28;19969;-71
2021/06/27 02:29:20;;;;;;;;;;;20.80;99.90;;;;;;5029444;28;19964;-71
2021/06/27 02:31:50;;;;;;;;;;;20.80;99.90;;;;;;5052396;28;20345;-74
2021/06/27 02:34:20;;;;;;;;;;;20.80;99.90;;;;;;5030876;28;19932;-71
2021/06/27 02:36:47;;;;;;;;;;;20.80;99.90;;;;;;5042026;28;19965;-72
2021/06/27 02:39:14;;;;;;;;;;;20.80;99.90;;;;;;5029336;28;19968;-71
2021/06/27 02:41:41;;;;;;;;;;;20.80;99.90;;;;;;5031042;28;19929;-72
2021/06/27 02:44:07;;;;;;;;;;;20.70;99.90;;;;;;5028125;28;20012;-72
2021/06/27 02:46:34;;;;;;;;;;;20.70;99.90;;;;;;5025937;28;19968;-71
2021/06/27 02:49:01;;;;;;;;;;;20.60;99.90;;;;;;5029078;28;19925;-71
2021/06/27 02:51:28;;;;;;;;;;;20.60;99.90;;;;;;5028418;28;19976;-71
2021/06/27 02:53:54;;;;;;;;;;;20.60;99.90;;;;;;5027994;28;19983;-71
2021/06/27 02:56:21;;;;;;;;;;;20.60;99.90;;;;;;5030686;28;20012;-71
2021/06/27 02:58:48;;;;;;;;;;;20.60;99.90;;;;;;5025974;28;19925;-72
2021/06/27 03:01:16;;;;;;;;;;;20.50;99.90;;;;;;5028132;28;20011;-72
2021/06/27 03:03:44;;;;;;;;;;;20.50;99.90;;;;;;5030892;28;19951;-71
2021/06/27 03:06:11;;;;;;;;;;;20.50;99.90;;;;;;5028334;28;19964;-71
2021/06/27 03:08:38;;;;;;;;;;;20.50;99.90;;;;;;5030422;28;20525;-77
2021/06/27 03:11:05;;;;;;;;;;;20.60;99.90;;;;;;5028680;28;19987;-78
2021/06/27 03:13:36;;;;;;;;;;;20.50;99.90;;;;;;5044072;28;20344;-77
2021/06/27 03:16:03;;;;;;;;;;;20.40;99.90;;;;;;5022682;28;19976;-78
2021/06/27 03:18:30;;;;;;;;;;;20.20;99.90;;;;;;5027542;28;20325;-77
2021/06/27 03:20:57;;;;;;;;;;;20.30;99.90;;;;;;5028308;28;19976;-78
2021/06/27 03:23:26;;;;;;;;;;;20.30;99.90;;;;;;5021597;28;19972;-72
2021/06/27 03:25:53;;;;;;;;;;;20.30;99.90;;;;;;5026507;28;20397;-72
2021/06/27 03:28:20;;;;;;;;;;;20.40;99.90;;;;;;5029851;28;19961;-71
2021/06/27 03:30:47;;;;;;;;;;;20.40;99.90;;;;;;5021087;28;19953;-72
2021/06/27 03:33:14;;;;;;;;;;;20.30;99.90;;;;;;5026594;28;19940;-71
2021/06/27 03:35:41;;;;;;;;;;;20.30;99.90;;;;;;5028632;28;20027;-72
2021/06/27 03:40:34;;;;;;;;;;;20.30;99.90;;;;;;5024243;28;20318;-71
2021/06/27 03:43:02;;;;;;;;;;;20.30;99.90;;;;;;5027850;28;20025;-71
2021/06/27 03:45:29;;;;;;;;;;;20.30;99.90;;;;;;5020921;28;19968;-71
2021/06/27 03:47:56;;;;;;;;;;;20.30;99.90;;;;;;5025906;28;20044;-71
2021/06/27 03:50:22;;;;;;;;;;;20.30;99.90;;;;;;5026835;28;19975;-72
2021/06/27 03:52:49;;;;;;;;;;;20.30;99.90;;;;;;5029457;28;19956;-71
2021/06/27 03:55:17;;;;;;;;;;;20.40;99.90;;;;;;5027676;28;19995;-72
2021/06/27 03:57:45;;;;;;;;;;;20.30;99.90;;;;;;5027212;28;19969;-72
2021/06/27 04:00:12;;;;;;;;;;;20.40;99.90;;;;;;5025467;28;19926;-72
2021/06/27 04:02:40;;;;;;;;;;;20.50;99.90;;;;;;5028063;28;20014;-72
2021/06/27 04:05:07;;;;;;;;;;;20.50;99.90;;;;;;5029232;28;20363;-71
2021/06/27 04:07:34;;;;;;;;;;;20.60;99.90;;;;;;5025394;28;19972;-72
2021/06/27 04:10:01;;;;;;;;;;;20.40;99.90;;;;;;5027728;28;20015;-72
2021/06/27 04:12:27;;;;;;;;;;;20.40;99.90;;;;;;5030041;28;19968;-72
2021/06/27 04:14:54;;;;;;;;;;;20.30;99.90;;;;;;5022590;28;19968;-71
2021/06/27 04:17:22;;;;;;;;;;;20.40;99.90;;;;;;5045537;28;20358;-77
2021/06/27 04:19:50;;;;;;;;;;;20.50;99.90;;;;;;5028369;28;19953;-77
2021/06/27 04:22:17;;;;;;;;;;;20.50;99.90;;;;;;5026949;28;19937;-78
2021/06/27 04:24:44;;;;;;;;;;;20.40;99.90;;;;;;5025852;28;19959;-78
2021/06/27 04:27:11;;;;;;;;;;;20.30;99.90;;;;;;5031324;28;20035;-78
2021/06/27 04:29:38;;;;;;;;;;;20.30;99.90;;;;;;5024897;28;19967;-78
2021/06/27 04:32:04;;;;;;;;;;;20.30;99.90;;;;;;5024133;28;19967;-78
2021/06/27 04:34:32;;;;;;;;;;;20.30;99.90;;;;;;5030590;28;19925;-78
2021/06/27 04:36:59;;;;;;;;;;;20.30;99.90;;;;;;5040721;28;19925;-78
2021/06/27 04:39:26;;;;;;;;;;;20.40;99.90;;;;;;5020174;28;19957;-77
2021/06/27 04:41:53;;;;;;;;;;;20.40;99.90;;;;;;5029252;28;19972;-78
2021/06/27 04:44:19;;;;;;;;;;;20.40;99.90;;;;;;5025125;28;20007;-78
2021/06/27 04:46:46;;;;;;;;;;;20.40;99.90;;;;;;5028098;28;19964;-78
2021/06/27 04:49:13;;;;;;;;;;;20.40;99.90;;;;;;5030243;28;19968;-78
2021/06/27 04:51:40;;;;;;;;;;;20.30;99.90;;;;;;5025348;28;19956;-78
2021/06/27 04:54:07;;;;;;;;;;;20.30;99.90;;;;;;5021544;28;20300;-72
2021/06/27 04:56:33;;;;;;;;;;;20.30;99.90;;;;;;5028773;28;19979;-72
2021/06/27 04:59:00;;;;;;;;;;;20.30;99.90;;;;;;5027344;28;19964;-72
2021/06/27 05:01:27;;;;;;;;;;;20.20;99.90;;;;;;5026547;28;20012;-72
2021/06/27 05:03:53;;;;;;;;;;;20.20;99.90;;;;;;5026345;28;19929;-72
2021/06/27 05:06:20;;;;;;;;;;;20.50;99.90;;;;;;5028502;28;19964;-72
2021/06/27 05:08:47;;;;;;;;;;;20.60;99.90;;;;;;5027896;28;20439;-73
2021/06/27 05:11:13;;;;;;;;;;;20.50;99.90;;;;;;5030706;28;20019;-72
2021/06/27 05:13:40;;;;;;;;;;;20.50;99.90;;;;;;5032561;28;19987;-72
2021/06/27 05:16:07;;;;;;;;;;;20.60;99.90;;;;;;5022020;28;20012;-73
2021/06/27 05:18:33;;;;;;;;;;;20.60;99.90;;;;;;5029233;28;19972;-73
2021/06/27 05:21:00;;;;;;;;;;;20.70;99.90;;;;;;5045999;28;19964;-72
2021/06/27 05:23:27;;;;;;;;;;;21.80;99.90;;;;;;5044758;28;19986;-72
2021/06/27 05:25:53;;;;;;;;;;;23.10;99.90;;;;;;5030782;28;19965;-79
2021/06/27 05:28:20;;;;;;;;;;;24.10;99.90;;;;;;5030807;28;19925;-78
2021/06/27 05:30:47;;;;;;;;;;;25.00;99.90;;;;;;5033381;28;19961;-79
2021/06/27 05:33:14;;;;;;;;;;;25.80;98.20;;;;;;5032215;28;20260;-78
2021/06/27 05:35:40;;;;;;;;;;;26.10;97.00;;;;;;5030508;28;20055;-78
2021/06/27 05:38:07;;;;;;;;;;;26.50;95.90;;;;;;5028273;28;19925;-79
2021/06/27 05:40:34;;;;;;;;;;;24.50;98.00;;;;;;5030289;28;20020;-79
2021/06/27 05:43:01;;;;;;;;;;;23.00;99.90;;;;;;5032077;28;19925;-78
2021/06/27 05:45:28;;;;;;;;;;;22.70;99.90;;;;;;5027816;28;19932;-78
2021/06/27 05:47:55;;;;;;;;;;;23.40;99.90;;;;;;5030820;28;20007;-78
2021/06/27 05:50:22;;;;;;;;;;;23.30;99.90;;;;;;5030146;28;20024;-75
2021/06/27 05:52:48;;;;;;;;;;;23.10;99.90;;;;;;5030288;28;20024;-79
2021/06/27 05:55:15;;;;;;;;;;;22.70;99.90;;;;;;5030513;28;20010;-79
2021/06/27 05:57:42;;;;;;;;;;;23.00;99.90;;;;;;5031262;28;19965;-77
2021/06/27 06:00:09;;;;;;;;;;;22.60;99.90;;;;;;5023624;28;19925;-78
2021/06/27 06:02:36;;;;;;;;;;;22.80;99.90;;;;;;5028006;28;20046;-78
2021/06/27 06:05:02;;;;;;;;;;;22.70;99.90;;;;;;5033287;28;20406;-79
2021/06/27 06:07:29;;;;;;;;;;;22.60;99.90;;;;;;5029856;28;20277;-79
2021/06/27 06:09:56;;;;;;;;;;;22.50;99.90;;;;;;5028036;28;20042;-79
2021/06/27 06:12:22;;;;;;;;;;;22.20;99.90;;;;;;5048143;28;19952;-78
2021/06/27 06:14:49;;;;;;;;;;;22.20;99.90;;;;;;5027035;28;19984;-79
2021/06/27 06:17:16;;;;;;;;;;;22.20;99.90;;;;;;5028234;28;20029;-75
2021/06/27 06:19:43;;;;;;;;;;;22.00;99.90;;;;;;5031718;28;19929;-79
2021/06/27 06:22:10;;;;;;;;;;;22.00;99.90;;;;;;5028374;28;19973;-80
2021/06/27 06:24:36;;;;;;;;;;;21.80;99.90;;;;;;5029899;28;19980;-79
2021/06/27 06:27:03;;;;;;;;;;;21.80;99.90;;;;;;5032735;28;19952;-79
2021/06/27 06:29:31;;;;;;;;;;;21.80;99.90;;;;;;5028615;28;20028;-79
2021/06/27 06:31:58;;;;;;;;;;;21.90;99.90;;;;;;5037245;28;20285;-79
2021/06/27 06:34:25;;;;;;;;;;;22.60;99.90;;;;;;5030793;28;20349;-77
2021/06/27 06:36:51;;;;;;;;;;;23.60;99.90;;;;;;5032355;28;19959;-80
2021/06/27 06:39:18;;;;;;;;;;;23.50;99.90;;;;;;5025322;28;19941;-78
2021/06/27 06:41:45;;;;;;;;;;;23.20;99.90;;;;;;5031924;28;20603;-79
2021/06/27 06:44:11;;;;;;;;;;;23.50;99.90;;;;;;5030657;28;19957;-79
2021/06/27 06:46:39;;;;;;;;;;;23.40;99.90;;;;;;5032031;28;19964;-79
2021/06/27 06:49:05;;;;;;;;;;;23.40;99.90;;;;;;5045719;28;19967;-78
2021/06/27 06:51:32;;;;;;;;;;;24.10;99.90;;;;;;5031055;28;19925;-79
2021/06/27 06:53:59;;;;;;;;;;;27.30;94.70;;;;;;5019437;28;19937;-79
2021/06/27 06:56:25;;;;;;;;;;;27.40;83.10;;;;;;5028397;28;20388;-79
2021/06/27 06:58:52;;;;;;;;;;;24.90;91.80;;;;;;5031189;28;19969;-77
2021/06/27 07:01:19;;;;;;;;;;;24.10;95.20;;;;;;5031082;28;20367;-79
2021/06/27 07:03:46;;;;;;;;;;;23.60;96.20;;;;;;5028795;28;19975;-80
2021/06/27 07:06:13;;;;;;;;;;;23.40;97.00;;;;;;5031208;28;19956;-79
2021/06/27 07:08:42;;;;;;;;;;;23.30;97.40;;;;;;5031039;28;20326;-78
2021/06/27 07:11:17;;;;;;;;;;;23.30;98.40;;;;;;5028085;28;19933;-78
2021/06/27 07:13:43;;;;;;;;;;;23.20;98.10;;;;;;5030716;28;20596;-76
2021/06/27 07:16:10;;;;;;;;;;;23.10;98.40;;;;;;5029593;28;19925;-80
2021/06/27 07:18:37;;;;;;;;;;;23.50;98.40;;;;;;5028177;28;20020;-78
2021/06/27 07:21:04;;;;;;;;;;;23.70;97.90;;;;;;5034864;28;19929;-79
2021/06/27 07:23:33;;;;;;;;;;;24.30;96.70;;;;;;5029212;28;20505;-79
2021/06/27 07:25:59;;;;;;;;;;;24.30;95.40;;;;;;5026036;28;19963;-78
2021/06/27 07:28:26;;;;;;;;;;;24.80;96.30;;;;;;5045874;28;20325;-78
2021/06/27 07:30:53;;;;;;;;;;;24.80;94.40;;;;;;5028399;28;19953;-77
2021/06/27 07:33:20;;;;;;;;;;;24.50;92.30;;;;;;5042374;28;19948;-78
2021/06/27 07:35:47;;;;;;;;;;;23.90;93.60;;;;;;5046325;28;19991;-78
2021/06/27 07:38:17;;;;;;;;;;;23.90;94.50;;;;;;5043425;28;19971;-79
2021/06/27 07:40:44;;;;;;;;;;;24.00;93.70;;;;;;5026810;28;19926;-79
2021/06/27 07:43:10;;;;;;;;;;;24.20;95.00;;;;;;5031430;28;20048;-79
2021/06/27 07:45:37;;;;;;;;;;;24.20;93.50;;;;;;5019947;28;20313;-79
2021/06/27 07:48:04;;;;;;;;;;;24.10;93.40;;;;;;5027201;28;19925;-79
2021/06/27 07:50:31;;;;;;;;;;;24.10;93.40;;;;;;5030933;28;19925;-76
2021/06/27 07:52:58;;;;;;;;;;;24.10;93.50;;;;;;5023405;28;20352;-79
2021/06/27 07:55:25;;;;;;;;;;;24.00;93.50;;;;;;5028876;28;19979;-78
2021/06/27 07:57:52;;;;;;;;;;;23.90;94.10;;;;;;5030751;28;20356;-78
2021/06/27 08:00:19;;;;;;;;;;;24.00;94.00;;;;;;5025934;28;20404;-78
2021/06/27 08:02:46;;;;;;;;;;;23.90;93.30;;;;;;5025005;28;20312;-77
2021/06/27 08:05:16;;;;;;;;;;;23.90;93.20;;;;;;5045827;28;20358;-78
2021/06/27 08:07:43;;;;;;;;;;;23.90;94.00;;;;;;5028457;28;19925;-78
2021/06/27 08:10:10;;;;;;;;;;;23.90;95.30;;;;;;5026496;28;19925;-78
2021/06/27 08:12:37;;;;;;;;;;;23.90;95.70;;;;;;5029967;28;20068;-79
2021/06/27 08:15:05;;;;;;;;;;;23.90;95.70;;;;;;5027274;28;20015;-79
2021/06/27 08:17:32;;;;;;;;;;;24.00;94.10;;;;;;5024626;28;19983;-79
2021/06/27 08:19:59;;;;;;;;;;;24.00;93.40;;;;;;5027516;28;19925;-79
2021/06/27 08:22:25;;;;;;;;;;;24.00;93.60;;;;;;5022310;28;19956;-79
2021/06/27 08:24:52;;;;;;;;;;;24.00;93.50;;;;;;5024120;28;19925;-79
2021/06/27 08:27:19;;;;;;;;;;;24.10;94.00;;;;;;5024864;28;19933;-78
2021/06/27 08:29:46;;;;;;;;;;;24.10;92.80;;;;;;5025165;28;19964;-79
2021/06/27 08:32:13;;;;;;;;;;;24.10;92.50;;;;;;5026549;28;20256;-79
2021/06/27 08:34:39;;;;;;;;;;;24.10;93.20;;;;;;5028129;28;20001;-77
2021/06/27 08:37:06;;;;;;;;;;;24.20;93.40;;;;;;5025440;28;20024;-78
2021/06/27 08:39:33;;;;;;;;;;;24.20;93.20;;;;;;5029722;28;19968;-75
2021/06/27 08:42:00;;;;;;;;;;;24.20;94.10;;;;;;5032061;28;19925;-77
2021/06/27 08:44:27;;;;;;;;;;;24.40;92.90;;;;;;5032344;28;19930;-79
2021/06/27 08:46:54;;;;;;;;;;;24.60;92.30;;;;;;5052307;28;19929;-72
2021/06/27 08:49:21;;;;;;;;;;;24.80;92.50;;;;;;5029988;28;20027;-72
2021/06/27 08:51:48;;;;;;;;;;;24.90;90.50;;;;;;5032028;28;20361;-72
2021/06/27 08:54:15;;;;;;;;;;;24.90;90.50;;;;;;5028758;28;20016;-73
2021/06/27 08:56:42;;;;;;;;;;;24.90;91.00;;;;;;5028754;28;20008;-73
2021/06/27 08:59:08;;;;;;;;;;;25.10;90.10;;;;;;5025517;28;19933;-77
2021/06/27 09:01:35;;;;;;;;;;;25.20;90.20;;;;;;5047259;28;19925;-78
2021/06/27 09:04:02;;;;;;;;;;;25.20;88.70;;;;;;5033496;28;19925;-80
2021/06/27 09:06:29;;;;;;;;;;;25.20;89.10;;;;;;5031949;28;19947;-78
2021/06/27 09:09:12;;;;;;;;;;;25.10;86.60;;;;;;5028593;28;19971;-78
2021/06/27 09:11:40;;;;;;;;;;;25.00;88.40;;;;;;5033474;28;19933;-77
2021/06/27 09:14:45;;;;;;;;;;;25.10;84.60;;;;;;5029554;28;20020;-78
2021/06/27 09:17:13;;;;;;;;;;;25.10;88.30;;;;;;5010401;28;19925;-78
2021/06/27 09:19:52;;;;;;;;;;;25.10;84.10;;;;;;5004771;28;19930;-78
2021/06/27 09:22:19;;;;;;;;;;;25.30;85.00;;;;;;5022784;28;19929;-77
2021/06/27 09:24:47;;;;;;;;;;;25.20;80.00;;;;;;5030693;28;20008;-77
2021/06/27 09:27:16;;;;;;;;;;;25.30;81.60;;;;;;5030373;28;19999;-71
2021/06/27 09:29:44;;;;;;;;;;;25.20;81.70;;;;;;5026810;28;20003;-74
2021/06/27 09:32:17;;;;;;;;;;;25.20;81.30;;;;;;5030562;28;19968;-74
2021/06/27 09:34:44;;;;;;;;;;;25.40;83.30;;;;;;5029099;28;19925;-73
2021/06/27 09:37:13;;;;;;;;;;;25.50;79.20;;;;;;5030545;28;19953;-74
2021/06/27 09:40:00;;;;;;;;;;;25.50;78.40;;;;;;5027769;28;19929;-73
2021/06/27 09:42:28;;;;;;;;;;;25.60;75.40;;;;;;5027368;28;19933;-72
2021/06/27 09:44:59;;;;;;;;;;;25.70;72.90;;;;;;5030915;28;20214;-73
2021/06/27 09:47:26;;;;;;;;;;;25.70;71.40;;;;;;5027902;28;20339;-73
2021/06/27 09:49:54;;;;;;;;;;;25.80;72.00;;;;;;5030604;28;20071;-73
2021/06/27 09:52:33;;;;;;;;;;;26.00;69.80;;;;;;5022254;28;20627;-73
2021/06/27 09:55:07;;;;;;;;;;;26.00;71.30;;;;;;5027416;28;20280;-71
2021/06/27 09:57:34;;;;;;;;;;;25.90;73.90;;;;;;5028212;28;19948;-72
2021/06/27 10:00:03;;;;;;;;;;;25.90;69.80;;;;;;5026259;28;19964;-75
2021/06/27 10:02:29;;;;;;;;;;;26.10;65.20;;;;;;5029875;28;20008;-73
2021/06/27 10:04:56;;;;;;;;;;;26.30;63.40;;;;;;5032585;28;20019;-72
2021/06/27 10:07:35;;;;;;;;;;;26.40;63.30;;;;;;5026796;28;19932;-74
2021/06/27 10:10:15;;;;;;;;;;;26.30;61.70;;;;;;5029060;28;20366;-74
2021/06/27 10:12:41;;;;;;;;;;;26.50;63.00;;;;;;5028201;28;19929;-73
2021/06/27 10:15:09;;;;;;;;;;;26.60;63.60;;;;;;5025986;28;19971;-74
2021/06/27 10:17:36;;;;;;;;;;;26.60;67.30;;;;;;5032752;28;20019;-73
2021/06/27 10:20:03;;;;;;;;;;;26.50;62.30;;;;;;5031039;28;20264;-71
2021/06/27 10:22:33;;;;;;;;;;;26.60;59.30;;;;;;5023907;28;19967;-73
2021/06/27 10:25:00;;;;;;;;;;;26.70;61.90;;;;;;5026066;28;19991;-67
2021/06/27 10:27:28;;;;;;;;;;;26.80;59.60;;;;;;5029783;28;19929;-67
2021/06/27 10:29:55;;;;;;;;;;;26.90;59.10;;;;;;5024949;28;20020;-69
2021/06/27 10:32:22;;;;;;;;;;;27.10;57.40;;;;;;5030815;28;19925;-68
2021/06/27 10:34:49;;;;;;;;;;;27.10;56.30;;;;;;5026453;28;20024;-68
2021/06/27 10:37:37;;;;;;;;;;;27.20;55.30;;;;;;5028109;28;19976;-68
2021/06/27 10:40:03;;;;;;;;;;;27.10;57.10;;;;;;5023427;28;20529;-67
2021/06/27 10:42:49;;;;;;;;;;;26.90;56.60;;;;;;5029649;28;19960;-68
2021/06/27 10:45:20;;;;;;;;;;;26.90;56.00;;;;;;5059836;28;19925;-69
2021/06/27 10:47:47;;;;;;;;;;;27.10;56.20;;;;;;5024308;28;19929;-78
2021/06/27 10:50:16;;;;;;;;;;;27.30;56.70;;;;;;5022659;28;19929;-72
2021/06/27 10:52:55;;;;;;;;;;;27.20;55.80;;;;;;5022155;28;19929;-72
2021/06/27 10:55:41;;;;;;;;;;;27.40;57.30;;;;;;5051718;28;19975;-72
2021/06/27 10:58:15;;;;;;;;;;;27.10;56.70;;;;;;5036606;28;20388;-73
2021/06/27 11:00:55;;;;;;;;;;;27.10;56.70;;;;;;5039924;28;19964;-73
2021/06/27 11:03:38;;;;;;;;;;;27.30;53.90;;;;;;5054511;28;19941;-74
2021/06/27 11:06:17;;;;;;;;;;;27.30;54.50;;;;;;5023284;28;19929;-73
2021/06/27 11:08:44;;;;;;;;;;;27.40;53.60;;;;;;5021848;28;20509;-72
2021/06/27 11:11:16;;;;;;;;;;;27.40;55.20;;;;;;5023699;28;20349;-72
2021/06/27 11:13:44;;;;;;;;;;;27.50;53.20;;;;;;5051715;28;20047;-72
2021/06/27 11:16:13;;;;;;;;;;;27.50;52.70;;;;;;5024171;28;20464;-74
2021/06/27 11:18:41;;;;;;;;;;;27.50;51.80;;;;;;5023895;28;19959;-73
2021/06/27 11:21:10;;;;;;;;;;;27.70;51.10;;;;;;5022641;28;19941;-72
2021/06/27 11:23:55;;;;;;;;;;;27.60;54.10;;;;;;5022426;28;20020;-72
2021/06/27 11:26:38;;;;;;;;;;;27.70;53.70;;;;;;5022577;28;19933;-72
2021/06/27 11:29:20;;;;;;;;;;;27.60;53.10;;;;;;5021154;28;20054;-71
2021/06/27 11:31:47;;;;;;;;;;;27.60;52.70;;;;;;5035245;28;19929;-73
2021/06/27 11:34:20;;;;;;;;;;;27.60;53.20;;;;;;5023874;28;19929;-73
2021/06/27 11:36:47;;;;;;;;;;;27.60;54.50;;;;;;5024696;28;19964;-73
2021/06/27 11:39:33;;;;;;;;;;;27.50;53.90;;;;;;5024407;28;20344;-73
2021/06/27 11:42:00;;;;;;;;;;;27.70;54.30;;;;;;5022609;28;19991;-70
2021/06/27 11:44:26;;;;;;;;;;;27.80;54.80;;;;;;5024095;28;20051;-71
2021/06/27 11:46:53;;;;;;;;;;;27.90;53.80;;;;;;5023818;28;20023;-72
2021/06/27 11:49:28;;;;;;;;;;;28.00;53.60;;;;;;5020417;28;20386;-71
2021/06/27 11:51:54;;;;;;;;;;;28.20;53.90;;;;;;5024344;28;20388;-71
2021/06/27 11:54:25;;;;;;;;;;;28.40;54.00;;;;;;5020968;28;19991;-73
2021/06/27 11:56:52;;;;;;;;;;;28.20;54.90;;;;;;5023036;28;19933;-72
2021/06/27 11:59:25;;;;;;;;;;;28.10;55.50;;;;;;5023614;28;20368;-71
2021/06/27 12:02:11;;;;;;;;;;;28.30;55.60;;;;;;5021417;28;20357;-73
2021/06/27 12:04:45;;;;;;;;;;;28.50;55.20;;;;;;5022904;28;19933;-72
2021/06/27 12:07:33;;;;;;;;;;;28.40;52.60;;;;;;5023451;28;19960;-73
2021/06/27 12:10:05;;;;;;;;;;;28.40;53.40;;;;;;5020255;28;19991;-73
2021/06/27 12:12:45;;;;;;;;;;;28.30;52.30;;;;;;5023318;28;19933;-72
2021/06/27 12:15:18;;;;;;;;;;;28.40;52.40;;;;;;5021291;28;19928;-73
2021/06/27 12:17:47;;;;;;;;;;;28.40;52.90;;;;;;5035580;28;20326;-72
2021/06/27 12:20:14;;;;;;;;;;;28.20;53.20;;;;;;5038610;28;20417;-73
2021/06/27 12:22:48;;;;;;;;;;;29.10;51.60;;;;;;5021801;28;20055;-72
2021/06/27 12:25:15;;;;;;;;;;;29.90;50.10;;;;;;5020839;28;20353;-72
2021/06/27 12:27:48;;;;;;;;;;;31.60;48.80;;;;;;5022570;28;20003;-74
2021/06/27 12:30:15;;;;;;;;;;;33.80;43.90;;;;;;5019110;28;19933;-74
2021/06/27 12:33:01;;;;;;;;;;;35.90;39.50;;;;;;5020283;28;19981;-71
2021/06/27 12:35:30;;;;;;;;;;;33.00;42.30;;;;;;5022284;28;19973;-72
2021/06/27 12:37:59;;;;;;;;;;;32.50;44.10;;;;;;5018951;28;20438;-73
2021/06/27 12:40:26;;;;;;;;;;;31.10;46.80;;;;;;5007761;28;20434;-73
2021/06/27 12:42:53;;;;;;;;;;;33.10;43.80;;;;;;5010143;28;19935;-72
2021/06/27 12:45:20;;;;;;;;;;;30.60;44.50;;;;;;5011308;28;20016;-73
2021/06/27 12:47:47;;;;;;;;;;;29.40;46.20;;;;;;5011917;28;19933;-72
2021/06/27 12:50:14;;;;;;;;;;;33.30;44.40;;;;;;5009645;28;19933;-73
2021/06/27 12:52:42;;;;;;;;;;;35.00;41.20;;;;;;5024397;28;19934;-72
2021/06/27 12:55:12;;;;;;;;;;;35.40;40.70;;;;;;5011722;28;21138;-73
2021/06/27 12:57:40;;;;;;;;;;;35.60;39.80;;;;;;5042090;28;19972;-72
2021/06/27 13:00:07;;;;;;;;;;;35.00;40.30;;;;;;5011298;28;20924;-74
2021/06/27 13:02:35;;;;;;;;;;;34.50;40.30;;;;;;5009486;28;19929;-72
2021/06/27 13:05:05;;;;;;;;;;;33.70;40.30;;;;;;5008445;28;19936;-73
2021/06/27 13:07:39;;;;;;;;;;;33.10;40.90;;;;;;5010311;28;19933;-72
2021/06/27 13:10:05;;;;;;;;;;;31.50;43.60;;;;;;5024628;28;20419;-72
2021/06/27 13:12:35;;;;;;;;;;;30.80;44.80;;;;;;5011770;28;20300;-75
2021/06/27 13:15:35;;;;;;;;;;;30.40;45.50;;;;;;5024211;28;19933;-72
2021/06/27 13:18:04;;;;;;;;;;;29.80;47.90;;;;;;5012369;28;19932;-72
2021/06/27 13:20:36;;;;;;;;;;;29.90;47.50;;;;;;5021851;28;19929;-74
2021/06/27 13:23:05;;;;;;;;;;;29.90;49.30;;;;;;5034696;28;19960;-83
2021/06/27 13:25:32;;;;;;;;;;;29.90;49.70;;;;;;5051204;28;20000;-73
2021/06/27 13:27:59;;;;;;;;;;;30.00;47.60;;;;;;5024845;28;20669;-73
2021/06/27 13:30:26;;;;;;;;;;;29.70;47.50;;;;;;5025287;28;19937;-73
2021/06/27 13:33:04;;;;;;;;;;;29.60;47.20;;;;;;5026147;28;19933;-72
2021/06/27 13:35:32;;;;;;;;;;;29.30;46.80;;;;;;5054044;28;20462;-74
2021/06/27 13:38:02;;;;;;;;;;;29.20;48.40;;;;;;5023095;28;19937;-72
2021/06/27 13:40:29;;;;;;;;;;;29.30;48.80;;;;;;5023893;28;19968;-72
2021/06/27 13:42:58;;;;;;;;;;;29.40;47.70;;;;;;5026049;28;19965;-72
2021/06/27 13:45:24;;;;;;;;;;;29.40;48.90;;;;;;5023656;28;19972;-72
2021/06/27 13:47:52;;;;;;;;;;;29.20;50.00;;;;;;5023420;28;20352;-73
2021/06/27 13:50:20;;;;;;;;;;;29.30;49.90;;;;;;5025040;28;20007;-72
2021/06/27 13:52:48;;;;;;;;;;;29.20;49.80;;;;;;5024073;28;19933;-72
2021/06/27 13:55:15;;;;;;;;;;;29.30;49.00;;;;;;5022950;28;20020;-73
2021/06/27 13:57:43;;;;;;;;;;;29.20;49.10;;;;;;5022815;28;19929;-71
2021/06/27 14:00:10;;;;;;;;;;;29.30;50.10;;;;;;5022703;28;19933;-74
2021/06/27 14:02:38;;;;;;;;;;;29.20;50.50;;;;;;5024341;28;19968;-70
2021/06/27 14:05:09;;;;;;;;;;;29.00;51.10;;;;;;5023493;28;19933;-70
2021/06/27 14:07:36;;;;;;;;;;;29.00;50.10;;;;;;5024031;28;19986;-71
2021/06/27 14:10:04;;;;;;;;;;;29.00;49.70;;;;;;5023487;28;19951;-70
2021/06/27 14:12:31;;;;;;;;;;;29.10;49.70;;;;;;5022340;28;19987;-72
2021/06/27 14:15:01;;;;;;;;;;;29.00;48.20;;;;;;5024442;28;19933;-69
2021/06/27 14:17:28;;;;;;;;;;;29.00;49.60;;;;;;5025143;28;20463;-69
2021/06/27 14:19:54;;;;;;;;;;;29.10;49.00;;;;;;5026945;28;20424;-70
2021/06/27 14:22:22;;;;;;;;;;;29.20;48.80;;;;;;5030454;28;20020;-70
2021/06/27 14:24:49;;;;;;;;;;;29.10;49.80;;;;;;5025644;28;19960;-70
2021/06/27 14:27:16;;;;;;;;;;;29.10;48.40;;;;;;5029764;28;19971;-68